Tiempo atmosférico en la estación meteorológica de Barbadillo, Salamanca (817 m.)



Fecha
DESCASC
Temp. máxima en grados centígrados (hora)
DESCASC
Temp. mínima en grados centígrados (hora)
DESCASC
Temp. media en grados centígrados
DESCASC
Racha de viento máxima en m/sg (hora)
DESCASC
Velocidad máxima media en intervalos de 10 minutos(hora)
DESCASC
Precipitaciones diarias en mm
DESCASC
Precipitaciones de 00:00 a 06:00 en mm
DESCASC
Precipitaciones de 06:00 a 12:00 en mm
DESCASC
Precipitaciones de 12:00 a 18:00 en mm
DESCASC
Precipitaciones de 18:00 a 24:00 en mm
DESCASC
25-04-2019 10.2 (18:20) 3 (10:00) 6.6 17.22 (18:40) 9.72 (18:20) 3.2 0.4 1.4 1.2 0.2
24-04-2019 13.3 (15:50) 3.4 (07:20) 8.4 22.22 (16:30) 12.22 (17:20) 6.8 0.2 1.8 1.2 3.6
23-04-2019 11.2 (00:00) 3.6 (23:20) 7.4 11.94 (15:10) 6.67 (03:10) 11.4 3.6 0.6 5.2 2
22-04-2019 18.9 (16:10) 0 (00:00) 9.4 10.83 (16:20) 6.67 (18:00) 0.2 0 0 0 0.2
21-04-2019 15.5 (17:20) 4.6 (00:00) 10 12.22 (13:00) 7.5 (17:40) 0 0 0 0 0
20-04-2019 21.1 (17:50) 7.9 (00:00) 14.5 18.61 (13:50) 9.44 (13:50) 0 0 0 0 0
19-04-2019 14.7 (17:40) 6.5 (00:00) 10.6 15 (20:50) 8.33 (20:30) 0.4 0.4 0 0 0
18-04-2019 15 (17:00) 4.5 (00:00) 9.8 10.56 (01:10) 6.67 (18:00) 0.2 0.2 0 0 0
17-04-2019 19.1 (15:40) 7.7 (00:00) 13.4 19.17 (16:00) 12.5 (16:10) 0.6 0 0 0 0.6
16-04-2019 18.6 (17:50) 0.1 (00:00) 9.4 8.06 (15:10) 4.72 (11:30) 0 0 0 0 0
15-04-2019 18.4 (14:20) 9.3 (00:00) 13.8 17.5 (13:50) 10.28 (16:20) 0.6 0 0 0.4 0.2
14-04-2019 19.3 (18:10) 10.1 (00:00) 14.7 6.11 (15:50) 3.61 (15:30) 0 0 0 0 0
13-04-2019 19.8 (17:40) 1.6 (00:00) 10.7 6.67 (18:00) 4.44 (19:10) 0 0 0 0 0
12-04-2019 16.1 (19:00) -2.3 (-00:0) 6.9 5.56 (14:00) 3.33 (10:30) 0 0 0 0 0
11-04-2019 13.3 (19:10) -0.9 (-00:0) 6.2 6.39 (11:50) 3.89 (11:40) 0 0 0 0 0
10-04-2019 12.2 (15:50) 4.5 (00:00) 8.3 11.94 (17:20) 6.67 (17:10) 6 0 0.2 3.4 2.4
09-04-2019 11.7 (16:00) 2.8 (00:00) 7.2 15.28 (16:50) 9.17 (16:50) 5.4 0 3.6 0.6 1.2
08-04-2019 14.1 (17:20) 5.2 (00:00) 9.7 11.11 (18:00) 7.22 (18:20) 2.8 2.4 0.2 0.2 0
07-04-2019 10 (15:40) 2.5 (00:00) 6.3 10.56 (01:10) 6.11 (01:30) 1.2 0 0 1 0.2
06-04-2019 8.8 (18:20) 2.2 (00:00) 5.5 16.39 (12:50) 9.72 (13:50) 2.6 0 1 1.4 0.2
05-04-2019 9.3 (18:00) 1.1 (00:00) 5.2 13.33 (17:20) 8.33 (19:20) 2.6 0 1.2 0.6 0.8
04-04-2019 12.4 (17:20) -5.8 (-00:0) 3.3 12.78 (18:40) 6.67 (16:00) 0.2 0 0 0 0.2
03-04-2019 11.8 (16:30) 4.1 (05:40) 8 12.22 (16:40) 6.67 (17:40) 0 0 0 0 0
02-04-2019 17.6 (17:30) 5.1 (00:00) 11.4 10.83 (16:50) 6.11 (16:50) 0 0 0 0 0
01-04-2019 17.5 (17:30) -0.5 (-00:0) 8.5 7.22 (20:00) 4.72 (20:00) 0 0 0 0 0
31-03-2019 18.2 (17:50) -1.5 (-00:0) 8.4 8.06 (13:50) 4.72 (19:10) 0 0 0 0 0
30-03-2019 18.7 (15:10) -1.7 (-00:0) 8.5 7.22 (15:00) 3.33 (18:00) 0 0 0 0 0
29-03-2019 18.3 (17:00) -3 (-00:0) 7.6 8.33 (18:00) 3.89 (17:20) 0 0 0 0 0
28-03-2019 18.2 (17:00) -4 (-00:0) 7.1 7.5 (00:20) 5.56 (00:10) 0 0 0 0 0
27-03-2019 17.8 (16:50) -3.4 (-00:0) 7.2 9.72 (21:50) 6.11 (21:40) 0 0 0 0 0

Gráficas

Temp. máximas Temp. mínimas Temp. medias Precipitaciones Rachas de viento máximas Velocidades máximas media en intervalos de 10 minutos

Datos horarios

Fecha y hora oficial Temperatura (ºC) Velocidad del viento (km/h) Dirección del viento Racha (km/h) Dirección de racha Precipitación (mm) Presión (hPa) Tendencia (hPa) Humedad (%)
2019-04-25 23:00:00 5.9 22 Sudoeste 41 Sudoeste 0 -- -- 86
2019-04-25 22:00:00 6.1 25 Sudoeste 44 Oeste 0 -- -- 83
2019-04-25 21:00:00 6.6 27 Oeste 52 Sudoeste 0 -- -- 79
2019-04-25 20:00:00 8.3 28 Oeste 53 Sudoeste 0.2 -- -- 73
2019-04-25 19:00:00 7.9 22 Oeste 62 Sudoeste 0 -- -- 80
2019-04-25 18:00:00 9.5 32 Oeste 59 Sudoeste 0.2 -- -- 77
2019-04-25 17:00:00 7.9 24 Sudoeste 57 Oeste 0.2 -- -- 79
2019-04-25 16:00:00 8.2 33 Sudoeste 55 Sudoeste 0 -- -- 78
2019-04-25 15:00:00 9.3 32 Sudoeste 51 Oeste 0.2 -- -- 70
2019-04-25 14:00:00 6.3 25 Oeste 56 Oeste 0.4 -- -- 86
2019-04-25 13:00:00 7.2 23 Sudoeste 55 Sudoeste 0.2 -- -- 86
2019-04-25 12:00:00 7 24 Sudoeste 40 Sudoeste 0 -- -- 82
2019-04-25 11:00:00 4.5 19 Sudoeste 35 Sudoeste 0.2 -- -- 93
2019-04-25 10:00:00 3 22 Oeste 41 Oeste 1 -- -- 91
2019-04-25 09:00:00 4.5 18 Oeste 33 Sudoeste 0.2 -- -- 89
2019-04-25 08:00:00 4.8 19 Sudoeste 38 Sudoeste 0 -- -- 85
2019-04-25 07:00:00 5 23 Sudoeste 41 Sudoeste 0 -- -- 83
2019-04-25 06:00:00 5.4 21 Sudoeste 39 Sudoeste 0 -- -- 87
2019-04-25 05:00:00 6 25 Sudoeste 40 Sudoeste 0.2 -- -- 84
2019-04-25 04:00:00 5.8 18 Sudoeste 30 Sudoeste 0.2 -- -- 86
2019-04-25 03:00:00 6.3 20 Sudoeste 41 Sudoeste 0 -- -- 83
2019-04-25 02:00:00 6.5 21 Sudoeste 35 Sudoeste 0 -- -- 85
2019-04-25 01:00:00 6.7 19 Sudoeste 43 Sudoeste 0 -- -- 88
2019-04-25 00:00:00 7.5 25 Sudoeste 58 Sudoeste 0.4 -- -- 90
2019-04-24 23:00:00 7.8 24 Sudoeste 46 Sudoeste 1.4 -- -- 91
2019-04-24 22:00:00 8.2 21 Sudoeste 38 Sudoeste 1.4 -- -- 91
2019-04-24 21:00:00 9.3 27 Sudoeste 53 Sudoeste 0 -- -- 80
2019-04-24 20:00:00 9.8 30 Sudoeste 54 Sudoeste 0 -- -- 77
2019-04-24 19:00:00 9.3 26 Sudoeste 53 Sudoeste 0.4 -- -- 86
2019-04-24 18:00:00 10.6 30 Sudoeste 73 Sudoeste 0 -- -- 74
2019-04-24 17:00:00 10.7 41 Sudoeste 80 Sudoeste 0.2 -- -- 78
2019-04-24 16:00:00 13 39 Sudoeste 63 Sudoeste 0 -- -- 69
2019-04-24 15:00:00 13 35 Sudoeste 58 Sudoeste 0.2 -- -- 73
2019-04-24 14:00:00 10.1 33 Sudoeste 61 Sur 0.8 -- -- 85
2019-04-24 13:00:00 11.6 33 Sudoeste 50 Sur 0 -- -- 75
2019-04-24 12:00:00 10.4 32 Sudoeste 54 Sudoeste 0 -- -- 76
2019-04-24 11:00:00 9 34 Sudoeste 57 Sudoeste 0 -- -- 81
2019-04-24 10:00:00 6.9 33 Sudoeste 51 Sudoeste 0 -- -- 85
2019-04-24 09:00:00 5.4 22 Sudoeste 45 Sudoeste 0.4 -- -- 90
2019-04-24 08:00:00 3.9 26 Sur 50 Sur 0.2 -- -- 89
2019-04-24 07:00:00 3.6 22 Sur 37 Sur 1.2 -- -- 90
2019-04-24 06:00:00 3.9 16 Sur 36 Sur 0 -- -- 87
2019-04-24 05:00:00 4 19 Sur 31 Sur 0 -- -- 88
2019-04-24 04:00:00 3.9 16 Sur 26 Sudoeste 0.2 -- -- 86
2019-04-24 03:00:00 3.8 11 Sur 18 Sudoeste 0 -- -- 89
2019-04-24 02:00:00 3.7 9 Sudoeste 24 Sudoeste 0 -- -- 86
2019-04-24 01:00:00 4 9 Sudoeste 17 Sudoeste 0 -- -- 87
2019-04-24 00:00:00 3.7 8 Sudoeste 18 Sudoeste 0 -- -- 88
2019-04-23 23:00:00 3.7 13 Sudoeste 27 Oeste 0 -- -- 85
2019-04-23 22:00:00 4.4 15 Sudoeste 25 Oeste 0 -- -- 83
2019-04-23 21:00:00 5.7 11 Sudoeste 25 Oeste 0 -- -- 82
2019-04-23 20:00:00 6.2 18 Oeste 41 Oeste 0.2 -- -- 84
2019-04-23 19:00:00 5.2 11 Sudoeste 23 Oeste 1.8 -- -- 91
2019-04-23 18:00:00 4.3 11 Sudoeste 27 Oeste 2 -- -- 89
2019-04-23 17:00:00 7.2 18 Sudoeste 26 Sudoeste 0.2 -- -- 80
2019-04-23 16:00:00 5.7 14 Sur 43 Sudoeste 1.2 -- -- 90
2019-04-23 15:00:00 7.2 18 Sudoeste 41 Sudoeste 0.4 -- -- 77
2019-04-23 14:00:00 5.9 24 Sudoeste 42 Sudoeste 1.4 -- -- 77
2019-04-23 13:00:00 9.7 17 Sudoeste 37 Sudoeste 0 -- -- 62
2019-04-23 12:00:00 8.6 20 Oeste 33 Sudoeste 0 -- -- 68
2019-04-23 11:00:00 6.5 17 Sudoeste 27 Sudoeste 0 -- -- 79
2019-04-23 10:00:00 5 14 Oeste 24 Sudoeste 0 -- -- 87
2019-04-23 09:00:00 4.5 4 Oeste 26 Oeste 0 -- -- 88
2019-04-23 08:00:00 4.3 14 Sudoeste 26 Oeste 0 -- -- 88
2019-04-23 07:00:00 5.3 9 Oeste 23 Oeste 0.6 -- -- 93
2019-04-23 06:00:00 5.5 4 Sudoeste 17 Oeste 1 -- -- 93
2019-04-23 05:00:00 5.5 13 Oeste 22 Oeste 1.6 -- -- 92
2019-04-23 04:00:00 6.1 9 Oeste 42 Oeste 1 -- -- 90
2019-04-23 03:00:00 9.8 20 Oeste 33 Oeste 0 -- -- 79
2019-04-23 02:00:00 10.5 12 Sudoeste 36 Sudoeste 0 -- -- 74
2019-04-23 01:00:00 11 12 Sur 22 Sur 0 -- -- 78
2019-04-23 00:00:00 11.2 5 Sudoeste 13 Oeste 0.2 -- -- 85
2019-04-22 23:00:00 11.8 9 Sudoeste 28 Oeste 0 -- -- 77
2019-04-22 22:00:00 12.7 9 Oeste 19 Oeste 0 -- -- 66
2019-04-22 21:00:00 13.5 12 Oeste 28 Oeste 0 -- -- 63
2019-04-22 20:00:00 15.4 15 Sudoeste 33 Sudoeste 0 -- -- 49
2019-04-22 19:00:00 15.8 20 Sur 33 Sur 0 -- -- 55
2019-04-22 18:00:00 15.9 24 Sur 38 Sur 0 -- -- 54
2019-04-22 17:00:00 17.9 21 Oeste 39 Oeste 0 -- -- 45
2019-04-22 16:00:00 18.6 17 Oeste 35 Oeste 0 -- -- 43
2019-04-22 15:00:00 17.8 15 Oeste 35 Oeste 0 -- -- 45
2019-04-22 14:00:00 16.4 14 Oeste 24 Oeste 0 -- -- 48
2019-04-22 13:00:00 15.8 9 Sudoeste 21 Sudoeste 0 -- -- 48
2019-04-22 12:00:00 14.2 5 Sudoeste 12 Oeste 0 -- -- 52
2019-04-22 11:00:00 12 4 Sur 11 Sudeste 0 -- -- 63
2019-04-22 10:00:00 7.4 2 Oeste 4 Este 0 -- -- 87
2019-04-22 09:00:00 2.3 0 Calma 5 Sur 0 -- -- 93
2019-04-22 08:00:00 0 5 Sur 6 Sur 0 -- -- 92
2019-04-22 07:00:00 0 5 Sur 6 Sur 0 -- -- 90
2019-04-22 06:00:00 0.6 4 Sudoeste 6 Sur 0 -- -- 89
2019-04-22 05:00:00 1.4 5 Sur 7 Sur 0 -- -- 89
2019-04-22 04:00:00 2.5 4 Sur 7 Sur 0 -- -- 88
2019-04-22 03:00:00 3.4 5 Sur 6 Sur 0 -- -- 84
2019-04-22 02:00:00 5 4 Sur 6 Sur 0 -- -- 83
2019-04-22 01:00:00 6.7 4 Sudeste 6 Sudeste 0 -- -- 78
2019-04-22 00:00:00 8.9 3 Sudoeste 5 Este 0 -- -- 73
2019-04-21 23:00:00 10.1 3 Este 6 Este 0 -- -- 69
2019-04-21 22:00:00 10.5 4 Nordeste 18 Nordeste 0 -- -- 64
2019-04-21 21:00:00 12.6 16 Nordeste 27 Este 0 -- -- 55
2019-04-21 20:00:00 13.7 19 Este 36 Este 0 -- -- 54
2019-04-21 19:00:00 14.6 22 Nordeste 32 Este 0 -- -- 52
2019-04-21 18:00:00 14.7 19 Nordeste 41 Este 0 -- -- 50
2019-04-21 17:00:00 14.9 19 Nordeste 39 Este 0 -- -- 50
2019-04-21 16:00:00 15 17 Nordeste 42 Nordeste 0 -- -- 50
2019-04-21 15:00:00 14 16 Nordeste 35 Este 0 -- -- 51
2019-04-21 14:00:00 15.3 21 Nordeste 38 Nordeste 0 -- -- 49
2019-04-21 13:00:00 14.2 20 Nordeste 44 Nordeste 0 -- -- 53
2019-04-21 12:00:00 12.5 22 Nordeste 37 Nordeste 0 -- -- 57
2019-04-21 11:00:00 12.1 17 Nordeste 33 Nordeste 0 -- -- 61
2019-04-21 10:00:00 10.2 18 Nordeste 28 Este 0 -- -- 68
2019-04-21 09:00:00 7.4 6 Nordeste 20 Nordeste 0 -- -- 83
2019-04-21 08:00:00 4.8 0 Calma 14 Nordeste 0 -- -- 87
2019-04-21 07:00:00 4.6 2 Este 5 Sudeste 0 -- -- 87
2019-04-21 06:00:00 6 3 Sudoeste 9 Nordeste 0 -- -- 84
2019-04-21 05:00:00 6 3 Este 8 Norte 0 -- -- 80
2019-04-21 04:00:00 7.9 3 Norte 16 Nordeste 0 -- -- 76
2019-04-21 03:00:00 9.8 12 Este 20 Este 0 -- -- 69
2019-04-21 02:00:00 10.3 5 Norte 21 Nordeste 0 -- -- 66
2019-04-21 01:00:00 11.5 12 Nordeste 31 Nordeste 0 -- -- 61
2019-04-21 00:00:00 13.1 18 Nordeste 33 Nordeste 0 -- -- 54
2019-04-20 23:00:00 14.2 14 Nordeste 38 Nordeste 0 -- -- 49
2019-04-20 22:00:00 15.4 17 Nordeste 40 Nordeste 0 -- -- 44
2019-04-20 21:00:00 17.4 12 Nordeste 33 Nordeste 0 -- -- 41
2019-04-20 20:00:00 19.2 16 Nordeste 37 Este 0 -- -- 39
2019-04-20 19:00:00 19.8 18 Nordeste 40 Nordeste 0 -- -- 41
2019-04-20 18:00:00 20.7 20 Nordeste 35 Nordeste 0 -- -- 37
2019-04-20 17:00:00 20.8 20 Nordeste 41 Este 0 -- -- 37
2019-04-20 16:00:00 20.6 26 Nordeste 43 Norte 0 -- -- 38
2019-04-20 15:00:00 20.2 26 Nordeste 50 Este 0 -- -- 38
2019-04-20 14:00:00 19.4 32 Nordeste 67 Nordeste 0 -- -- 38
2019-04-20 13:00:00 17.6 28 Nordeste 48 Nordeste 0 -- -- 44
2019-04-20 12:00:00 15.6 29 Nordeste 40 Nordeste 0 -- -- 54
2019-04-20 11:00:00 14.1 22 Nordeste 36 Nordeste 0 -- -- 59
2019-04-20 10:00:00 12.7 17 Nordeste 37 Nordeste 0 -- -- 63
2019-04-20 09:00:00 10 16 Este 26 Nordeste 0 -- -- 75
2019-04-20 08:00:00 8.1 12 Este 27 Este 0 -- -- 77
2019-04-20 07:00:00 8.9 16 Nordeste 26 Nordeste 0 -- -- 74
2019-04-20 06:00:00 9.1 17 Nordeste 32 Este 0 -- -- 73
2019-04-20 05:00:00 9.7 23 Este 38 Este 0 -- -- 73
2019-04-20 04:00:00 10 20 Nordeste 30 Nordeste 0 -- -- 71
2019-04-20 03:00:00 10.5 19 Nordeste 37 Este 0 -- -- 70
2019-04-20 02:00:00 9.8 16 Nordeste 24 Este 0 -- -- 76
2019-04-20 01:00:00 10 12 Este 22 Nordeste 0 -- -- 79
2019-04-20 00:00:00 11.6 17 Nordeste 34 Nordeste 0 -- -- 72
2019-04-19 23:00:00 11.6 15 Nordeste 21 Nordeste 0 -- -- 77
2019-04-19 22:00:00 11.7 10 Nordeste 32 Nordeste 0 -- -- 78
2019-04-19 21:00:00 11.7 22 Nordeste 54 Nordeste 0 -- -- 78
2019-04-19 20:00:00 12.2 27 Nordeste 40 Nordeste 0 -- -- 72
2019-04-19 19:00:00 13.7 25 Nordeste 40 Nordeste 0 -- -- 66
2019-04-19 18:00:00 14.4 27 Este 39 Este 0 -- -- 60
2019-04-19 17:00:00 14.2 23 Este 38 Este 0 -- -- 57
2019-04-19 16:00:00 14 21 Este 36 Este 0 -- -- 59
2019-04-19 15:00:00 13.5 24 Este 39 Este 0 -- -- 61
2019-04-19 14:00:00 12.6 25 Nordeste 39 Este 0 -- -- 65
2019-04-19 13:00:00 12.6 27 Este 43 Nordeste 0 -- -- 68
2019-04-19 12:00:00 12.2 26 Este 40 Nordeste 0 -- -- 73
2019-04-19 11:00:00 11.4 20 Este 33 Este 0 -- -- 77
2019-04-19 10:00:00 9.5 12 Nordeste 24 Nordeste 0 -- -- 88
2019-04-19 09:00:00 7.7 6 Este 13 Este 0 -- -- 96
2019-04-19 08:00:00 6.6 5 Este 9 Este 0 -- -- 93
2019-04-19 07:00:00 7.1 3 Sudeste 8 Sur 0 -- -- 93
2019-04-19 06:00:00 7.6 7 Sur 15 Sudoeste 0 -- -- 94
2019-04-19 05:00:00 7.8 6 Oeste 13 Oeste 0.2 -- -- 95
2019-04-19 04:00:00 7.8 6 Sudoeste 12 Sudoeste 0 -- -- 95
2019-04-19 03:00:00 7.6 6 Sudoeste 9 Oeste 0 -- -- 94
2019-04-19 02:00:00 8 6 Sudoeste 10 Sudoeste 0 -- -- 91
2019-04-19 01:00:00 8.5 4 Oeste 5 Oeste 0.2 -- -- 89
2019-04-19 00:00:00 8.8 3 Noroeste 8 Nordeste 0 -- -- 85
2019-04-18 23:00:00 8.9 3 Norte 5 Noroeste 0 -- -- 86
2019-04-18 22:00:00 9.3 0 Calma 8 Oeste 0 -- -- 82
2019-04-18 21:00:00 9.9 6 Oeste 20 Sudoeste 0 -- -- 78
2019-04-18 20:00:00 11.2 6 Este 24 Este 0 -- -- 75
2019-04-18 19:00:00 11.2 19 Este 35 Este 0 -- -- 77
2019-04-18 18:00:00 12.5 24 Este 37 Este 0 -- -- 66
2019-04-18 17:00:00 15 10 Nordeste 21 Nordeste 0 -- -- 50
2019-04-18 16:00:00 13.9 10 Nordeste 23 Nordeste 0 -- -- 58
2019-04-18 15:00:00 13.3 13 Nordeste 23 Nordeste 0 -- -- 61
2019-04-18 14:00:00 12.4 10 Nordeste 17 Nordeste 0 -- -- 64
2019-04-18 13:00:00 10.9 7 Noroeste 11 Norte 0 -- -- 76
2019-04-18 12:00:00 11.2 6 Sudoeste 11 Sudoeste 0 -- -- 70
2019-04-18 11:00:00 10.4 5 Sudoeste 9 Sudoeste 0 -- -- 76
2019-04-18 10:00:00 7.9 2 Sudeste 6 Nordeste 0 -- -- 94
2019-04-18 09:00:00 5.5 4 Norte 8 Sudeste 0 -- -- 95
2019-04-18 08:00:00 4.7 5 Este 7 Este 0 -- -- 92
2019-04-18 07:00:00 6.2 3 Sudoeste 11 Sur 0 -- -- 89
2019-04-18 06:00:00 7.8 9 Sur 14 Sur 0 -- -- 89
2019-04-18 05:00:00 7.5 7 Sur 12 Sur 0 -- -- 90
2019-04-18 04:00:00 7.9 4 Sur 15 Sur 0 -- -- 89
2019-04-18 03:00:00 8.3 6 Sur 18 Sudoeste 0 -- -- 89
2019-04-18 02:00:00 8.7 14 Sudoeste 38 Sur 0.2 -- -- 89
2019-04-18 01:00:00 8.9 14 Sudoeste 31 Sudoeste 0 -- -- 88
2019-04-18 00:00:00 8.7 12 Sudoeste 33 Sur 0 -- -- 88
2019-04-17 23:00:00 9.1 20 Sur 35 Sur 0.4 -- -- 87
2019-04-17 22:00:00 9.9 13 Sudoeste 23 Oeste 0 -- -- 87
2019-04-17 21:00:00 10.8 15 Oeste 40 Sudoeste 0.2 -- -- 86
2019-04-17 20:00:00 14.9 28 Sudoeste 56 Sudoeste 0 -- -- 63
2019-04-17 19:00:00 17.3 33 Sur 49 Sur 0 -- -- 44
2019-04-17 18:00:00 17.3 25 Sur 55 Sudeste 0 -- -- 45
2019-04-17 17:00:00 17.5 35 Sur 66 Sur 0 -- -- 44
2019-04-17 16:00:00 18.6 45 Sur 69 Sur 0 -- -- 36
2019-04-17 15:00:00 18 28 Sur 48 Sur 0 -- -- 41
2019-04-17 14:00:00 17.1 27 Sur 49 Sur 0 -- -- 43
2019-04-17 13:00:00 17.5 25 Sur 49 Sudoeste 0 -- -- 44
2019-04-17 12:00:00 16.2 28 Sur 45 Sudoeste 0 -- -- 49
2019-04-17 11:00:00 15.2 21 Sur 35 Sur 0 -- -- 54
2019-04-17 10:00:00 13.9 14 Sur 22 Sur 0 -- -- 59
2019-04-17 09:00:00 10.1 3 Nordeste 9 Nordeste 0 -- -- 73
2019-04-17 08:00:00 9.7 2 Este 15 Nordeste 0 -- -- 69
2019-04-17 07:00:00 11.5 6 Este 14 Este 0 -- -- 62
2019-04-17 06:00:00 11.6 9 Sudeste 19 Sudeste 0 -- -- 60
2019-04-17 05:00:00 11.4 7 Sudeste 19 Sudeste 0 -- -- 58
2019-04-17 04:00:00 12.6 3 Sudeste 23 Sur 0 -- -- 56
2019-04-17 03:00:00 10 3 Sur 9 Sur 0 -- -- 71
2019-04-17 02:00:00 10.1 3 Sur 21 Este 0 -- -- 71
2019-04-17 01:00:00 8.4 5 Este 10 Este 0 -- -- 79
2019-04-17 00:00:00 8.5 3 Sur 6 Sur 0 -- -- 77
2019-04-16 23:00:00 9.9 3 Sur 8 Sur 0 -- -- 72
2019-04-16 22:00:00 11.9 6 Sur 7 Sur 0 -- -- 66
2019-04-16 21:00:00 14.8 4 Sudoeste 10 Sudoeste 0 -- -- 53
2019-04-16 20:00:00 17.3 9 Sudoeste 18 Sur 0 -- -- 41
2019-04-16 19:00:00 17.8 9 Sudoeste 22 Sudoeste 0 -- -- 42
2019-04-16 18:00:00 18.4 12 Sudoeste 21 Sur 0 -- -- 45
2019-04-16 17:00:00 17.9 10 Sur 26 Sur 0 -- -- 48
2019-04-16 16:00:00 17.9 16 Sudoeste 29 Sur 0 -- -- 39
2019-04-16 15:00:00 17.1 15 Sudoeste 25 Sudoeste 0 -- -- 35
2019-04-16 14:00:00 16.3 9 Sudoeste 20 Sudoeste 0 -- -- 42
2019-04-16 13:00:00 14.5 6 Este 23 Este 0 -- -- 51
2019-04-16 12:00:00 12.5 14 Este 26 Este 0 -- -- 70
2019-04-16 11:00:00 10 13 Este 19 Este 0 -- -- 82
2019-04-16 10:00:00 7.5 8 Este 15 Este 0 -- -- 91
2019-04-16 09:00:00 2 2 Sur 6 Sur 0 -- -- 96
2019-04-16 08:00:00 0.1 5 Sur 8 Sur 0 -- -- 94
2019-04-16 07:00:00 0.7 3 Sur 5 Sur 0 -- -- 94
2019-04-16 06:00:00 1.4 6 Sur 9 Sudeste 0 -- -- 94
2019-04-16 05:00:00 2.2 5 Sudoeste 10 Sur 0 -- -- 93
2019-04-16 04:00:00 3.1 4 Sur 8 Sur 0 -- -- 93
2019-04-16 03:00:00 3.6 5 Sur 7 Sur 0 -- -- 90
2019-04-16 02:00:00 5.4 5 Sudeste 6 Sudeste 0 -- -- 88
2019-04-16 01:00:00 7.6 3 Sudoeste 12 Sudoeste 0 -- -- 83
2019-04-16 00:00:00 9.3 5 Sudoeste 18 Oeste 0 -- -- 80
2019-04-15 23:00:00 9.9 12 Oeste 17 Oeste 0 -- -- 82
2019-04-15 22:00:00 10.1 3 Oeste 19 Oeste 0 -- -- 83
2019-04-15 21:00:00 11.1 12 Oeste 26 Sudoeste 0 -- -- 82
2019-04-15 20:00:00 12.3 18 Sudoeste 29 Oeste 0 -- -- 76
2019-04-15 19:00:00 11.9 12 Sudoeste 24 Sudoeste 0.2 -- -- 82
2019-04-15 18:00:00 9.9 14 Sudoeste 35 Oeste 0.4 -- -- 88
2019-04-15 17:00:00 11.3 21 Oeste 56 Oeste 0 -- -- 71
2019-04-15 16:00:00 14.7 25 Oeste 48 Oeste 0 -- -- 58
2019-04-15 15:00:00 17.4 28 Oeste 46 Oeste 0 -- -- 52
2019-04-15 14:00:00 17.9 28 Sudoeste 63 Sudoeste 0 -- -- 48
2019-04-15 13:00:00 17 23 Sudoeste 44 Sudoeste 0 -- -- 65
2019-04-15 12:00:00 16.6 30 Sudoeste 45 Sudoeste 0 -- -- 68
2019-04-15 11:00:00 16.7 23 Sudoeste 34 Sudoeste 0 -- -- 71
2019-04-15 10:00:00 13.2 3 Noroeste 5 Sudeste 0 -- -- 88
2019-04-15 09:00:00 12.1 0 Calma 9 Oeste 0 -- -- 90
2019-04-15 08:00:00 12.2 4 Sudeste 10 Sudeste 0 -- -- 88
2019-04-15 07:00:00 11.8 7 Sudeste 10 Sudeste 0 -- -- 90
2019-04-15 06:00:00 11.2 6 Sudeste 11 Sudeste 0 -- -- 92
2019-04-15 05:00:00 10.4 7 Sur 15 Sur 0 -- -- 94
2019-04-15 04:00:00 9.6 4 Sur 5 Sur 0 -- -- 91
2019-04-15 03:00:00 9.4 3 Sudeste 5 Noroeste 0 -- -- 91
2019-04-15 02:00:00 10.3 2 Oeste 4 Noroeste 0 -- -- 87
2019-04-15 01:00:00 11.9 3 Sur 8 Sur 0 -- -- 84
2019-04-15 00:00:00 13.6 7 Sur 9 Sur 0 -- -- 81
2019-04-14 23:00:00 13.2 6 Sur 8 Sudoeste 0 -- -- 84
2019-04-14 22:00:00 14.2 5 Sur 8 Sur 0 -- -- 78
2019-04-14 21:00:00 17.1 0 Calma 8 Noroeste 0 -- -- 68
2019-04-14 20:00:00 18.1 5 Noroeste 12 Noroeste 0 -- -- 63
2019-04-14 19:00:00 18.6 8 Oeste 17 Oeste 0 -- -- 59
2019-04-14 18:00:00 19.1 10 Oeste 18 Oeste 0 -- -- 56
2019-04-14 17:00:00 19.2 9 Oeste 21 Sudoeste 0 -- -- 58
2019-04-14 16:00:00 19 10 Oeste 22 Oeste 0 -- -- 62
2019-04-14 15:00:00 17.9 12 Oeste 21 Oeste 0 -- -- 64
2019-04-14 14:00:00 16.9 5 Noroeste 15 Oeste 0 -- -- 69
2019-04-14 13:00:00 16.7 8 Oeste 17 Oeste 0 -- -- 68
2019-04-14 12:00:00 15.5 6 Oeste 17 Oeste 0 -- -- 74
2019-04-14 11:00:00 13.2 9 Sur 13 Sudoeste 0 -- -- 83
2019-04-14 10:00:00 11.6 5 Sudoeste 11 Sudoeste 0 -- -- 89
2019-04-14 09:00:00 10.9 5 Sudoeste 12 Oeste 0 -- -- 92
2019-04-14 08:00:00 10.5 5 Oeste 10 Oeste 0 -- -- 94
2019-04-14 07:00:00 10.1 5 Oeste 10 Oeste 0 -- -- 92
2019-04-14 06:00:00 10.7 3 Oeste 10 Sudoeste 0 -- -- 92
2019-04-14 05:00:00 11.4 7 Sudoeste 17 Oeste 0 -- -- 92
2019-04-14 04:00:00 10.9 7 Sudoeste 13 Sudoeste 0 -- -- 92
2019-04-14 03:00:00 10.9 10 Sudoeste 15 Sudoeste 0 -- -- 89
2019-04-14 02:00:00 11.2 9 Sudoeste 16 Oeste 0 -- -- 85
2019-04-14 01:00:00 11.9 7 Sudoeste 15 Sudoeste 0 -- -- 78
2019-04-14 00:00:00 12.7 6 Sudoeste 12 Oeste 0 -- -- 71
2019-04-13 23:00:00 13.8 7 Oeste 15 Sudoeste 0 -- -- 64
2019-04-13 22:00:00 15.2 9 Oeste 21 Oeste 0 -- -- 55
2019-04-13 21:00:00 16.3 13 Oeste 24 Oeste 0 -- -- 50
2019-04-13 20:00:00 18.2 9 Oeste 22 Oeste 0 -- -- 43
2019-04-13 19:00:00 18.9 13 Oeste 24 Oeste 0 -- -- 36
2019-04-13 18:00:00 19.8 15 Oeste 24 Noroeste 0 -- -- 34
2019-04-13 17:00:00 19.5 8 Oeste 22 Oeste 0 -- -- 33
2019-04-13 16:00:00 19.4 8 Sudoeste 17 Sur 0 -- -- 34
2019-04-13 15:00:00 18.3 8 Oeste 16 Sudoeste 0 -- -- 36
2019-04-13 14:00:00 17.1 4 Este 17 Sur 0 -- -- 41
2019-04-13 13:00:00 16.2 6 Este 17 Este 0 -- -- 43
2019-04-13 12:00:00 14.8 2 Sur 11 Este 0 -- -- 49
2019-04-13 11:00:00 13.1 2 Este 8 Este 0 -- -- 58
2019-04-13 10:00:00 8.2 2 Oeste 4 Sur 0 -- -- 84
2019-04-13 09:00:00 3.6 3 Sur 5 Sudeste 0 -- -- 93
2019-04-13 08:00:00 2.6 3 Sur 5 Sur 0 -- -- 91
2019-04-13 07:00:00 2.8 4 Sur 5 Sur 0 -- -- 91
2019-04-13 06:00:00 2.6 4 Sur 5 Sur 0 -- -- 91
2019-04-13 05:00:00 2.3 0 Calma 11 Oeste 0 -- -- 90
2019-04-13 04:00:00 1.7 4 Sur 9 Sur 0 -- -- 90
2019-04-13 03:00:00 1.9 5 Sur 6 Sur 0 -- -- 89
2019-04-13 02:00:00 2.9 5 Sur 12 Sur 0 -- -- 85
2019-04-13 01:00:00 3.7 5 Sur 9 Sur 0 -- -- 85
2019-04-13 00:00:00 4.6 9 Sur 15 Sur 0 -- -- 83
2019-04-12 23:00:00 6.6 3 Sur 7 Sur 0 -- -- 78
2019-04-12 22:00:00 9.5 3 Sur 8 Oeste 0 -- -- 67
2019-04-12 21:00:00 13.8 4 Noroeste 9 Oeste 0 -- -- 51
2019-04-12 20:00:00 15.5 4 Oeste 17 Noroeste 0 -- -- 42
2019-04-12 19:00:00 16.1 7 Oeste 15 Este 0 -- -- 42
2019-04-12 18:00:00 15.7 5 Nordeste 16 Noroeste 0 -- -- 40
2019-04-12 17:00:00 15.4 5 Nordeste 18 Nordeste 0 -- -- 43
2019-04-12 16:00:00 14.9 4 Sudeste 18 Nordeste 0 -- -- 46
2019-04-12 15:00:00 13.7 6 Oeste 17 Norte 0 -- -- 46
2019-04-12 14:00:00 13 9 Norte 20 Noroeste 0 -- -- 48
2019-04-12 13:00:00 11.8 5 Nordeste 17 Este 0 -- -- 54
2019-04-12 12:00:00 9.8 8 Este 16 Este 0 -- -- 70
2019-04-12 11:00:00 7.8 9 Este 17 Este 0 -- -- 80
2019-04-12 10:00:00 5.5 9 Este 15 Este 0 -- -- 87
2019-04-12 09:00:00 -0.1 2 Sudoeste 6 Sur 0 -- -- 95
2019-04-12 08:00:00 -2.3 2 Sudeste 5 Sur 0 -- -- 92
2019-04-12 07:00:00 -1.8 3 Sur 5 Sudoeste 0 -- -- 92
2019-04-12 06:00:00 -1.5 4 Sur 5 Sur 0 -- -- 92
2019-04-12 05:00:00 -1 0 Calma 5 Sur 0 -- -- 91
2019-04-12 04:00:00 -0.3 4 Sur 6 Sur 0 -- -- 90
2019-04-12 03:00:00 0.7 4 Sur 19 Nordeste 0 -- -- 89
2019-04-12 02:00:00 1.3 4 Sur 10 Sur 0 -- -- 88
2019-04-12 01:00:00 1.7 6 Sur 13 Sur 0 -- -- 87
2019-04-12 00:00:00 2.6 6 Sur 10 Sur 0 -- -- 85
2019-04-11 23:00:00 4 6 Sur 9 Sur 0 -- -- 81
2019-04-11 22:00:00 7 4 Sur 6 Sur 0 -- -- 71
2019-04-11 21:00:00 10 3 Norte 13 Nordeste 0 -- -- 61
2019-04-11 20:00:00 12.6 9 Nordeste 20 Norte 0 -- -- 45
2019-04-11 19:00:00 13.1 11 Noroeste 20 Noroeste 0 -- -- 41
2019-04-11 18:00:00 12.4 4 Norte 20 Norte 0 -- -- 41
2019-04-11 17:00:00 12.5 10 Nordeste 20 Nordeste 0 -- -- 48
2019-04-11 16:00:00 11.2 8 Norte 16 Norte 0 -- -- 54
2019-04-11 15:00:00 11.2 4 Nordeste 15 Nordeste 0 -- -- 54
2019-04-11 14:00:00 9.8 6 Nordeste 14 Norte 0 -- -- 62
2019-04-11 13:00:00 9.8 7 Este 19 Nordeste 0 -- -- 62
2019-04-11 12:00:00 8.6 13 Este 23 Este 0 -- -- 76
2019-04-11 11:00:00 6.1 13 Este 19 Este 0 -- -- 97
2019-04-11 10:00:00 1.4 3 Norte 5 Nordeste 0 -- -- 98
2019-04-11 09:00:00 -0.5 2 Sur 4 Sudeste 0 -- -- 97
2019-04-11 08:00:00 -0.8 0 Calma 4 Sudoeste 0 -- -- 97
2019-04-11 07:00:00 -0.5 4 Sur 5 Sur 0 -- -- 97
2019-04-11 06:00:00 -0.5 0 Calma 6 Sudoeste 0 -- -- 95
2019-04-11 05:00:00 0 3 Sudoeste 6 Sur 0 -- -- 96
2019-04-11 04:00:00 0.4 5 Sur 8 Sudeste 0 -- -- 95
2019-04-11 03:00:00 1 4 Sudoeste 8 Sur 0 -- -- 94
2019-04-11 02:00:00 2.4 0 Calma 5 Este 0 -- -- 93
2019-04-11 01:00:00 3.8 0 Calma 5 Sudoeste 0 -- -- 93
2019-04-11 00:00:00 5 4 Sudoeste 10 Sudoeste 0 -- -- 93
2019-04-10 23:00:00 5.3 5 Sudoeste 19 Este 0 -- -- 93
2019-04-10 22:00:00 5.6 3 Sudoeste 6 Sudoeste 0 -- -- 93
2019-04-10 21:00:00 5.8 3 Sudoeste 8 Sudoeste 0 -- -- 91
2019-04-10 20:00:00 5.8 2 Sudoeste 18 Sudoeste 0.2 -- -- 90
2019-04-10 19:00:00 5.7 10 Sudoeste 22 Oeste 2.2 -- -- 90
2019-04-10 18:00:00 6 13 Norte 43 Norte 3.4 -- -- 83
2019-04-10 17:00:00 12 23 Oeste 40 Noroeste 0 -- -- 57
2019-04-10 16:00:00 12 22 Oeste 37 Oeste 0 -- -- 57
2019-04-10 15:00:00 10.7 20 Oeste 38 Oeste 0 -- -- 64
2019-04-10 14:00:00 10.6 19 Oeste 34 Oeste 0 -- -- 64
2019-04-10 13:00:00 9.4 19 Noroeste 36 Oeste 0 -- -- 69
2019-04-10 12:00:00 8.5 23 Oeste 40 Oeste 0 -- -- 71
2019-04-10 11:00:00 7 16 Oeste 28 Oeste 0 -- -- 82
2019-04-10 10:00:00 6.1 13 Oeste 28 Oeste 0 -- -- 90
2019-04-10 09:00:00 5.1 17 Oeste 27 Oeste 0 -- -- 93
2019-04-10 08:00:00 4.6 14 Oeste 26 Sudoeste 0 -- -- 93
2019-04-10 07:00:00 4.8 14 Sudoeste 27 Sudoeste 0.2 -- -- 91
2019-04-10 06:00:00 5.1 16 Sudoeste 27 Sudoeste 0 -- -- 89
2019-04-10 05:00:00 5.2 17 Sudoeste 30 Sudoeste 0 -- -- 90
2019-04-10 04:00:00 5.1 18 Sudoeste 26 Sudoeste 0 -- -- 91
2019-04-10 03:00:00 5.4 14 Oeste 33 Oeste 0 -- -- 91
2019-04-10 02:00:00 5.2 13 Oeste 30 Oeste 0 -- -- 92
2019-04-10 01:00:00 5.3 16 Oeste 31 Oeste 0 -- -- 89
2019-04-10 00:00:00 5.8 18 Oeste 28 Oeste 0 -- -- 88
2019-04-09 23:00:00 6.5 14 Oeste 29 Oeste 0.8 -- -- 89
2019-04-09 22:00:00 6.9 18 Oeste 41 Oeste 0 -- -- 81
2019-04-09 21:00:00 6.9 8 Oeste 44 Sudoeste 0.4 -- -- 86
2019-04-09 20:00:00 9.3 21 Oeste 42 Sudoeste 0 -- -- 68
2019-04-09 19:00:00 10 21 Oeste 38 Oeste 0 -- -- 70
2019-04-09 18:00:00 9.8 25 Oeste 45 Oeste 0 -- -- 69
2019-04-09 17:00:00 7.2 24 Oeste 55 Oeste 0.6 -- -- 83
2019-04-09 16:00:00 11.7 23 Oeste 55 Oeste 0 -- -- 54
2019-04-09 15:00:00 10.1 26 Oeste 39 Oeste 0 -- -- 60
2019-04-09 14:00:00 9 24 Oeste 39 Oeste 0 -- -- 67
2019-04-09 13:00:00 6.7 24 Oeste 38 Oeste 0 -- -- 90
2019-04-09 12:00:00 3.6 19 Sudoeste 41 Oeste 2.4 -- -- 95
2019-04-09 11:00:00 4.8 26 Oeste 46 Sudoeste 1.2 -- -- 88
2019-04-09 10:00:00 6.6 20 Sudoeste 37 Sudoeste 0 -- -- 82
2019-04-09 09:00:00 6.1 20 Sudoeste 33 Sudoeste 0 -- -- 84
2019-04-09 08:00:00 5.3 13 Sudoeste 31 Sudoeste 0 -- -- 85
2019-04-09 07:00:00 5.2 12 Sudoeste 20 Sudoeste 0 -- -- 87
2019-04-09 06:00:00 4.9 10 Sudoeste 23 Sudoeste 0 -- -- 89
2019-04-09 05:00:00 4.7 14 Sudoeste 23 Sur 0 -- -- 90
2019-04-09 04:00:00 4.5 11 Sudoeste 19 Sudoeste 0 -- -- 87
2019-04-09 03:00:00 4.4 9 Sur 16 Sudoeste 0 -- -- 88
2019-04-09 02:00:00 4.9 8 Sur 15 Sudoeste 0 -- -- 85
2019-04-09 01:00:00 5.4 9 Sudoeste 15 Sudoeste 0 -- -- 85
2019-04-09 00:00:00 5.2 9 Sudoeste 15 Sudoeste 0 -- -- 85
2019-04-08 23:00:00 6.2 9 Sudoeste 16 Sudoeste 0 -- -- 82
2019-04-08 22:00:00 6.9 10 Sudoeste 17 Sudoeste 0 -- -- 79
2019-04-08 21:00:00 8 9 Sudoeste 27 Sudoeste 0 -- -- 75
2019-04-08 20:00:00 9.4 21 Sudoeste 35 Sudoeste 0 -- -- 68
2019-04-08 19:00:00 9.5 23 Oeste 39 Oeste 0 -- -- 66
2019-04-08 18:00:00 11.8 23 Noroeste 40 Noroeste 0 -- -- 61
2019-04-08 17:00:00 13.5 23 Oeste 36 Oeste 0 -- -- 47
2019-04-08 16:00:00 12.6 17 Oeste 33 Oeste 0 -- -- 57
2019-04-08 15:00:00 11.7 22 Oeste 37 Oeste 0 -- -- 50
2019-04-08 14:00:00 10.9 17 Oeste 31 Oeste 0 -- -- 61
2019-04-08 13:00:00 9.2 21 Oeste 36 Oeste 0.2 -- -- 80
2019-04-08 12:00:00 7.6 15 Oeste 28 Oeste 0.2 -- -- 86
2019-04-08 11:00:00 8.4 15 Oeste 27 Sudoeste 0 -- -- 82
2019-04-08 10:00:00 7.7 19 Oeste 27 Oeste 0 -- -- 87
2019-04-08 09:00:00 6.8 11 Oeste 25 Oeste 0 -- -- 92
2019-04-08 08:00:00 6.9 13 Oeste 34 Oeste 0 -- -- 93
2019-04-08 07:00:00 7.1 18 Oeste 32 Sudoeste 0 -- -- 91
2019-04-08 06:00:00 8 16 Oeste 35 Sudoeste 0.4 -- -- 93
2019-04-08 05:00:00 8.4 13 Sudoeste 27 Sur 1.8 -- -- 93
2019-04-08 04:00:00 8.4 12 Sudoeste 26 Sudoeste 0.2 -- -- 92
2019-04-08 03:00:00 8.5 15 Sudoeste 24 Sudoeste 0 -- -- 88
2019-04-08 02:00:00 8.2 15 Sur 24 Sudoeste 0 -- -- 85
2019-04-08 01:00:00 8.8 16 Sudoeste 32 Sudoeste 0 -- -- 79
2019-04-08 00:00:00 8.6 14 Sudoeste 25 Sudoeste 0 -- -- 86
2019-04-07 23:00:00 8.6 17 Sudoeste 30 Sudoeste 0 -- -- 86
2019-04-07 22:00:00 8.1 16 Sur 28 Sur 0 -- -- 89
2019-04-07 21:00:00 7.9 19 Sudoeste 30 Sudoeste 0 -- -- 88
2019-04-07 20:00:00 7.9 20 Sur 29 Sur 0 -- -- 88
2019-04-07 19:00:00 7.6 15 Sur 30 Sur 0.2 -- -- 88
2019-04-07 18:00:00 7.5 14 Sur 24 Sur 0.4 -- -- 84
2019-04-07 17:00:00 7.8 12 Sur 36 Oeste 0.6 -- -- 84
2019-04-07 16:00:00 9.6 12 Oeste 29 Sudoeste 0 -- -- 60
2019-04-07 15:00:00 9.4 16 Oeste 29 Sudoeste 0 -- -- 68
2019-04-07 14:00:00 8.9 18 Sudoeste 26 Sudoeste 0 -- -- 70
2019-04-07 13:00:00 8 15 Sudoeste 30 Sudoeste 0 -- -- 70
2019-04-07 12:00:00 7.4 15 Oeste 24 Sudoeste 0 -- -- 70
2019-04-07 11:00:00 5.8 14 Oeste 23 Oeste 0 -- -- 81
2019-04-07 10:00:00 4.8 14 Oeste 23 Sudoeste 0 -- -- 87
2019-04-07 09:00:00 3.9 12 Sudoeste 24 Oeste 0 -- -- 90
2019-04-07 08:00:00 3.6 14 Sudoeste 24 Sudoeste 0 -- -- 90
2019-04-07 07:00:00 3.3 15 Sudoeste 24 Sudoeste 0 -- -- 92
2019-04-07 06:00:00 3.1 15 Sudoeste 29 Sudoeste 0 -- -- 92
2019-04-07 05:00:00 2.5 13 Oeste 29 Sudoeste 0 -- -- 91
2019-04-07 04:00:00 3 15 Oeste 28 Sudoeste 0 -- -- 91
2019-04-07 03:00:00 3.4 18 Oeste 32 Oeste 0 -- -- 90
2019-04-07 02:00:00 3.7 18 Oeste 38 Oeste 0 -- -- 90
2019-04-07 01:00:00 3.6 17 Sudoeste 32 Sudoeste 0 -- -- 92
2019-04-07 00:00:00 3.8 16 Sudoeste 33 Sudoeste 0.2 -- -- 89
2019-04-06 23:00:00 3.9 16 Sudoeste 32 Sudoeste 0 -- -- 86
2019-04-06 22:00:00 3.7 13 Oeste 37 Oeste 0 -- -- 88
2019-04-06 21:00:00 4.6 27 Oeste 50 Oeste 0 -- -- 81
2019-04-06 20:00:00 6.7 23 Oeste 41 Oeste 0 -- -- 70
2019-04-06 19:00:00 6 24 Oeste 55 Oeste 0 -- -- 76
2019-04-06 18:00:00 7.6 28 Oeste 48 Sudoeste 0 -- -- 66
2019-04-06 17:00:00 6.4 30 Oeste 56 Oeste 0 -- -- 78
2019-04-06 16:00:00 5.6 23 Oeste 50 Oeste 0.6 -- -- 89
2019-04-06 15:00:00 5.7 23 Oeste 54 Sudoeste 0.8 -- -- 85
2019-04-06 14:00:00 5.8 35 Oeste 57 Sudoeste 0 -- -- 81
2019-04-06 13:00:00 6.3 35 Sudoeste 59 Sudoeste 0 -- -- 73
2019-04-06 12:00:00 4.2 27 Sudoeste 44 Sudoeste 0.2 -- -- 86
2019-04-06 11:00:00 4 32 Sudoeste 53 Sudoeste 0 -- -- 85
2019-04-06 10:00:00 3.1 27 Sudoeste 45 Oeste 0.2 -- -- 91
2019-04-06 09:00:00 2.7 22 Sudoeste 34 Sudoeste 0 -- -- 91
2019-04-06 08:00:00 2.7 17 Sudoeste 36 Sudoeste 0.4 -- -- 92
2019-04-06 07:00:00 3.1 15 Sudoeste 34 Sudoeste 0.2 -- -- 88
2019-04-06 06:00:00 3.3 19 Sudoeste 31 Sudoeste 0 -- -- 85
2019-04-06 05:00:00 2.8 14 Sudoeste 24 Sudoeste 0 -- -- 89
2019-04-06 04:00:00 2.7 15 Sudoeste 25 Sudoeste 0 -- -- 90
2019-04-06 03:00:00 2.3 12 Sudoeste 24 Sudoeste 0 -- -- 91
2019-04-06 02:00:00 2.5 16 Sudoeste 30 Sudoeste 0 -- -- 92
2019-04-06 01:00:00 2.3 15 Sudoeste 32 Sudoeste 0 -- -- 92
2019-04-06 00:00:00 2.3 14 Sudoeste 22 Oeste 0 -- -- 94
2019-04-05 23:00:00 1.8 11 Sudoeste 19 Oeste 0 -- -- 91
2019-04-05 22:00:00 2.5 13 Oeste 36 Oeste 0.4 -- -- 89
2019-04-05 21:00:00 4.1 5 Sudoeste 26 Sudoeste 0.4 -- -- 87
2019-04-05 20:00:00 5.1 19 Oeste 46 Oeste 0 -- -- 74
2019-04-05 19:00:00 5.8 26 Oeste 47 Oeste 0 -- -- 69
2019-04-05 18:00:00 9.3 17 Oeste 48 Oeste 0 -- -- 49
2019-04-05 17:00:00 8.1 19 Oeste 34 Oeste 0 -- -- 57
2019-04-05 16:00:00 6.7 13 Sudoeste 22 Sudoeste 0 -- -- 74
2019-04-05 15:00:00 3.6 18 Oeste 36 Oeste 0.4 -- -- 89
2019-04-05 14:00:00 4.7 22 Oeste 35 Sudoeste 0.2 -- -- 83
2019-04-05 13:00:00 5.4 16 Oeste 31 Sudoeste 0 -- -- 75
2019-04-05 12:00:00 4 16 Oeste 33 Oeste 0 -- -- 85
2019-04-05 11:00:00 3.9 16 Oeste 25 Sudoeste 0 -- -- 86
2019-04-05 10:00:00 2.5 14 Oeste 22 Oeste 0 -- -- 92
2019-04-05 09:00:00 1.7 7 Sudoeste 17 Sudoeste 0 -- -- 93
2019-04-05 08:00:00 1.6 10 Sudoeste 18 Sudoeste 0.4 -- -- 94
2019-04-05 07:00:00 1.1 9 Sudoeste 41 Oeste 0.8 -- -- 92
2019-04-05 06:00:00 4.9 17 Sudoeste 27 Sur 0 -- -- 84
2019-04-05 05:00:00 4.4 15 Sudoeste 32 Sur 0 -- -- 86
2019-04-05 04:00:00 3.9 24 Sur 36 Sur 0 -- -- 87
2019-04-05 03:00:00 4.1 22 Sur 40 Sur 0 -- -- 88
2019-04-05 02:00:00 4.1 23 Sur 40 Sudoeste 0 -- -- 89
2019-04-05 01:00:00 4.1 22 Sur 37 Sudoeste 0 -- -- 87
2019-04-05 00:00:00 4.3 14 Sur 31 Sur 0.2 -- -- 86
2019-04-04 23:00:00 4.7 12 Sudoeste 21 Sudoeste 0 -- -- 86
2019-04-04 22:00:00 5.3 12 Oeste 27 Oeste 0 -- -- 79
2019-04-04 21:00:00 6.1 11 Oeste 21 Sudoeste 0 -- -- 74
2019-04-04 20:00:00 7.2 14 Oeste 30 Oeste 0 -- -- 67
2019-04-04 19:00:00 9.6 18 Oeste 46 Sudoeste 0 -- -- 46
2019-04-04 18:00:00 10.8 19 Oeste 40 Oeste 0 -- -- 37
2019-04-04 17:00:00 12 24 Oeste 41 Oeste 0 -- -- 35
2019-04-04 16:00:00 11.3 24 Oeste 40 Oeste 0 -- -- 34
2019-04-04 15:00:00 10.3 19 Oeste 33 Oeste 0 -- -- 38
2019-04-04 14:00:00 9.1 15 Oeste 28 Oeste 0 -- -- 45
2019-04-04 13:00:00 7.4 12 Oeste 27 Sudoeste 0 -- -- 49
2019-04-04 12:00:00 6.1 10 Noroeste 17 Oeste 0 -- -- 54
2019-04-04 11:00:00 4.5 6 Oeste 15 Sudoeste 0 -- -- 59
2019-04-04 10:00:00 1.8 8 Oeste 12 Oeste 0 -- -- 74
2019-04-04 09:00:00 -4 6 Sur 8 Sur 0 -- -- 89
2019-04-04 08:00:00 -5.8 5 Sur 10 Sur 0 -- -- 85
2019-04-04 07:00:00 -5.2 6 Sur 10 Sur 0 -- -- 86
2019-04-04 06:00:00 -5.2 6 Sur 9 Sur 0 -- -- 84
2019-04-04 05:00:00 -4.2 4 Sudoeste 9 Sudoeste 0 -- -- 82
2019-04-04 04:00:00 -3.3 6 Sur 14 Sur 0 -- -- 79
2019-04-04 03:00:00 -2 2 Sur 8 Sur 0 -- -- 75
2019-04-04 02:00:00 0.1 4 Sur 7 Sur 0 -- -- 67
2019-04-04 01:00:00 2.6 4 Oeste 23 Norte 0 -- -- 58
2019-04-04 00:00:00 4.3 16 Noroeste 29 Noroeste 0 -- -- 53
2019-04-03 23:00:00 4.6 10 Noroeste 20 Noroeste 0 -- -- 49
2019-04-03 22:00:00 5.9 9 Noroeste 23 Noroeste 0 -- -- 52
2019-04-03 21:00:00 7.5 13 Noroeste 36 Oeste 0 -- -- 45
2019-04-03 20:00:00 8.9 19 Noroeste 42 Oeste 0 -- -- 42
2019-04-03 19:00:00 10 23 Noroeste 41 Noroeste 0 -- -- 39
2019-04-03 18:00:00 11.1 23 Noroeste 42 Oeste 0 -- -- 37
2019-04-03 17:00:00 11.6 17 Noroeste 44 Noroeste 0 -- -- 37
2019-04-03 16:00:00 11.7 15 Oeste 32 Oeste 0 -- -- 39
2019-04-03 15:00:00 10.1 16 Noroeste 27 Noroeste 0 -- -- 43
2019-04-03 14:00:00 9.3 12 Noroeste 26 Oeste 0 -- -- 52
2019-04-03 13:00:00 7.7 10 Noroeste 23 Noroeste 0 -- -- 60
2019-04-03 12:00:00 6.3 14 Noroeste 26 Oeste 0 -- -- 66
2019-04-03 11:00:00 5.7 16 Oeste 32 Oeste 0 -- -- 69
2019-04-03 10:00:00 5.3 17 Oeste 26 Oeste 0 -- -- 73
2019-04-03 09:00:00 4.8 12 Oeste 21 Oeste 0 -- -- 80
2019-04-03 08:00:00 4.6 9 Oeste 19 Oeste 0 -- -- 82
2019-04-03 07:00:00 4.6 9 Oeste 17 Oeste 0 -- -- 89
2019-04-03 06:00:00 4.2 7 Oeste 12 Oeste 0 -- -- 90
2019-04-03 05:00:00 4.8 9 Sudoeste 14 Sudoeste 0 -- -- 86
2019-04-03 04:00:00 4.7 5 Sudoeste 14 Sudoeste 0 -- -- 82
2019-04-03 03:00:00 4.9 8 Oeste 12 Sudoeste 0 -- -- 81
2019-04-03 02:00:00 6.3 6 Oeste 14 Oeste 0 -- -- 72
2019-04-03 01:00:00 7.1 10 Oeste 18 Oeste 0 -- -- 67
2019-04-03 00:00:00 5.2 5 Sudoeste 10 Oeste 0 -- -- 64
2019-04-02 23:00:00 5.8 6 Sudoeste 9 Sudoeste 0 -- -- 59
2019-04-02 22:00:00 8.3 6 Sur 9 Oeste 0 -- -- 48
2019-04-02 21:00:00 13 6 Noroeste 29 Noroeste 0 -- -- 34
2019-04-02 20:00:00 15.3 17 Oeste 33 Oeste 0 -- -- 32
2019-04-02 19:00:00 16.5 17 Oeste 37 Oeste 0 -- -- 34
2019-04-02 18:00:00 17.3 22 Oeste 36 Oeste 0 -- -- 35
2019-04-02 17:00:00 17.5 19 Oeste 39 Oeste 0 -- -- 34
2019-04-02 16:00:00 17.2 15 Oeste 37 Oeste 0 -- -- 41
2019-04-02 15:00:00 16.3 19 Oeste 31 Oeste 0 -- -- 42
2019-04-02 14:00:00 15.7 18 Oeste 37 Oeste 0 -- -- 44
2019-04-02 13:00:00 14.4 15 Oeste 30 Sudoeste 0 -- -- 56
2019-04-02 12:00:00 12.8 17 Oeste 28 Oeste 0 -- -- 60
2019-04-02 11:00:00 11.8 12 Oeste 19 Oeste 0 -- -- 60
2019-04-02 10:00:00 9.3 10 Sudoeste 16 Oeste 0 -- -- 78
2019-04-02 09:00:00 8.1 8 Sudoeste 12 Sudoeste 0 -- -- 83
2019-04-02 08:00:00 8 0 Calma 7 Sudoeste 0 -- -- 81
2019-04-02 07:00:00 8.3 5 Sudoeste 9 Sudoeste 0 -- -- 81
2019-04-02 06:00:00 8.3 4 Sudoeste 9 Oeste 0 -- -- 80
2019-04-02 05:00:00 7.5 3 Sudoeste 5 Sur 0 -- -- 80
2019-04-02 04:00:00 6.9 0 Calma 7 Sudoeste 0 -- -- 78
2019-04-02 03:00:00 8.2 3 Sur 8 Oeste 0 -- -- 73
2019-04-02 02:00:00 9.1 5 Oeste 11 Sudoeste 0 -- -- 70
2019-04-02 01:00:00 9.5 5 Sudoeste 13 Sudoeste 0 -- -- 68
2019-04-02 00:00:00 9.7 6 Sudoeste 16 Oeste 0 -- -- 68
2019-04-01 23:00:00 10.3 12 Sudoeste 21 Oeste 0 -- -- 66
2019-04-01 22:00:00 11.3 11 Noroeste 21 Oeste 0 -- -- 63
2019-04-01 21:00:00 12.7 11 Noroeste 26 Oeste 0 -- -- 60
2019-04-01 20:00:00 15.2 17 Oeste 26 Oeste 0 -- -- 50
2019-04-01 19:00:00 17.1 5 Este 14 Nordeste 0 -- -- 34
2019-04-01 18:00:00 17 8 Oeste 16 Noroeste 0 -- -- 37
2019-04-01 17:00:00 17.2 6 Este 19 Nordeste 0 -- -- 34
2019-04-01 16:00:00 16.2 9 Nordeste 18 Norte 0 -- -- 41
2019-04-01 15:00:00 15.9 6 Norte 18 Este 0 -- -- 41
2019-04-01 14:00:00 14.9 8 Este 21 Sudeste 0 -- -- 51
2019-04-01 13:00:00 13.4 9 Este 19 Este 0 -- -- 58
2019-04-01 12:00:00 11.2 11 Este 18 Nordeste 0 -- -- 68
2019-04-01 11:00:00 9 9 Este 14 Este 0 -- -- 74
2019-04-01 10:00:00 5 3 Nordeste 6 Este 0 -- -- 89
2019-04-01 09:00:00 0.2 0 Calma 5 Sur 0 -- -- 91
2019-04-01 08:00:00 -0.3 5 Sur 7 Sudeste 0 -- -- 90
2019-04-01 07:00:00 0.6 0 Calma 8 Sur 0 -- -- 88
2019-04-01 06:00:00 1.7 2 Sur 5 Sur 0 -- -- 86
2019-04-01 05:00:00 2.4 0 Calma 12 Sudoeste 0 -- -- 82
2019-04-01 04:00:00 3.8 0 Calma 6 Sur 0 -- -- 81
2019-04-01 03:00:00 6.7 4 Sudeste 7 Sudeste 0 -- -- 75
2019-04-01 02:00:00 7.1 4 Noroeste 11 Norte 0 -- -- 76
2019-04-01 01:00:00 5.6 0 Calma 8 Sur 0 -- -- 78
2019-04-01 00:00:00 6 6 Sur 12 Sur 0 -- -- 73
2019-03-31 23:00:00 8 5 Sur 8 Sur 0 -- -- 66
2019-03-31 22:00:00 11.3 4 Sur 5 Sudeste 0 -- -- 58
2019-03-31 21:00:00 13.5 3 Este 13 Este 0 -- -- 50
2019-03-31 20:00:00 14.9 9 Sur 22 Sur 0 -- -- 46
2019-03-31 19:00:00 16.1 15 Sudeste 29 Este 0 -- -- 42
2019-03-31 18:00:00 17.6 14 Nordeste 27 Nordeste 0 -- -- 37
2019-03-31 17:00:00 17.2 12 Nordeste 24 Nordeste 0 -- -- 29
2019-03-31 16:00:00 18 13 Nordeste 24 Nordeste 0 -- -- 31
2019-03-31 15:00:00 17.2 14 Nordeste 28 Nordeste 0 -- -- 33
2019-03-31 14:00:00 17.2 15 Este 29 Este 0 -- -- 38
2019-03-31 13:00:00 15.4 9 Este 21 Este 0 -- -- 43
2019-03-31 12:00:00 12.5 6 Nordeste 13 Norte 0 -- -- 48
2019-03-31 11:00:00 9.5 6 Nordeste 11 Nordeste 0 -- -- 61
2019-03-31 10:00:00 2.8 3 Noroeste 6 Noroeste 0 -- -- 83
2019-03-31 09:00:00 -1.4 0 Calma 9 Sur 0 -- -- 87
2019-03-31 08:00:00 -1.4 0 Calma 10 Sur 0 -- -- 85
2019-03-31 07:00:00 -1.2 5 Sur 13 Sur 0 -- -- 85
2019-03-31 06:00:00 -0.8 5 Sudeste 8 Sudeste 0 -- -- 83
2019-03-31 05:00:00 0 3 Sur 8 Sur 0 -- -- 82
2019-03-31 03:00:00 0.7 6 Sur 9 Sur 0 -- -- 82
2019-03-31 01:00:00 1.9 2 Este 6 Sur 0 -- -- 71
2019-03-31 00:00:00 3.3 5 Sur 7 Sur 0 -- -- 69
2019-03-30 23:00:00 4.7 0 Calma 15 Sur 0 -- -- 65
2019-03-30 22:00:00 6.6 6 Sur 10 Sur 0 -- -- 61
2019-03-30 21:00:00 9.9 3 Sudoeste 8 Sur 0 -- -- 48
2019-03-30 20:00:00 13.5 0 Calma 5 Norte 0 -- -- 42
2019-03-30 19:00:00 15.5 3 Norte 20 Este 0 -- -- 33
2019-03-30 18:00:00 17.4 12 Nordeste 19 Nordeste 0 -- -- 29
2019-03-30 17:00:00 18.1 5 Oeste 14 Nordeste 0 -- -- 26
2019-03-30 16:00:00 17.6 9 Norte 19 Norte 0 -- -- 27
2019-03-30 15:00:00 18.5 10 Sudeste 26 Este 0 -- -- 26
2019-03-30 14:00:00 16.3 7 Noroeste 15 Norte 0 -- -- 30
2019-03-30 13:00:00 17.2 7 Este 18 Este 0 -- -- 29
2019-03-30 12:00:00 16.8 9 Este 21 Este 0 -- -- 30
2019-03-30 11:00:00 15.7 7 Nordeste 13 Nordeste 0 -- -- 34
2019-03-30 10:00:00 13.1 4 Nordeste 9 Nordeste 0 -- -- 47
2019-03-30 09:00:00 5.3 0 Calma 5 Sur 0 -- -- 70
2019-03-30 08:00:00 -0.6 4 Sur 5 Sur 0 -- -- 82
2019-03-30 07:00:00 -1.5 4 Sur 10 Sur 0 -- -- 82
2019-03-30 06:00:00 -1.3 5 Sur 11 Sur 0 -- -- 81
2019-03-30 05:00:00 -0.6 6 Sur 8 Sur 0 -- -- 80
2019-03-30 04:00:00 0 6 Sur 11 Sur 0 -- -- 79
2019-03-30 03:00:00 0.1 5 Sudeste 10 Sur 0 -- -- 77
2019-03-30 02:00:00 1.2 4 Este 6 Este 0 -- -- 75
2019-03-30 01:00:00 2.5 4 Sur 6 Sur 0 -- -- 71
2019-03-30 00:00:00 3.4 5 Sur 14 Sur 0 -- -- 67
2019-03-29 23:00:00 4.6 3 Sudeste 10 Sudoeste 0 -- -- 62
2019-03-29 22:00:00 7.7 3 Sur 6 Este 0 -- -- 54
2019-03-29 21:00:00 11.9 4 Norte 15 Nordeste 0 -- -- 40
2019-03-29 20:00:00 14.4 5 Noroeste 20 Noroeste 0 -- -- 38
2019-03-29 19:00:00 16.6 12 Noroeste 20 Noroeste 0 -- -- 31
2019-03-29 18:00:00 17.3 13 Noroeste 30 Oeste 0 -- -- 30
2019-03-29 17:00:00 18.3 8 Noroeste 24 Oeste 0 -- -- 28
2019-03-29 16:00:00 18 12 Noroeste 26 Norte 0 -- -- 28
2019-03-29 15:00:00 17.8 8 Nordeste 22 Nordeste 0 -- -- 27
2019-03-29 14:00:00 17.1 8 Noroeste 19 Norte 0 -- -- 30
2019-03-29 13:00:00 16.7 6 Noroeste 15 Noroeste 0 -- -- 31
2019-03-29 12:00:00 15.1 9 Noroeste 20 Noroeste 0 -- -- 32
2019-03-29 11:00:00 14 4 Sur 10 Oeste 0 -- -- 34
2019-03-29 10:00:00 9.5 4 Noroeste 8 Noroeste 0 -- -- 45
2019-03-29 09:00:00 3.6 0 Calma 4 Sudoeste 0 -- -- 75
2019-03-29 08:00:00 -1.9 3 Sudoeste 8 Sur 0 -- -- 84
2019-03-29 07:00:00 -2.8 4 Sur 6 Sudeste 0 -- -- 84
2019-03-29 06:00:00 -2.3 0 Calma 4 Sudoeste 0 -- -- 82
2019-03-29 05:00:00 -2.1 2 Sur 9 Sur 0 -- -- 81
2019-03-29 04:00:00 -1.5 0 Calma 9 Sur 0 -- -- 80
2019-03-29 03:00:00 -0.9 6 Sur 8 Sur 0 -- -- 79
2019-03-29 02:00:00 0.2 2 Sudoeste 10 Sur 0 -- -- 75
2019-03-29 01:00:00 1 4 Sur 9 Sur 0 -- -- 74
2019-03-29 00:00:00 1.5 4 Sudoeste 9 Sur 0 -- -- 70
2019-03-28 23:00:00 3.2 3 Sur 9 Sur 0 -- -- 65
2019-03-28 22:00:00 5.5 3 Sudoeste 8 Sudoeste 0 -- -- 59
2019-03-28 21:00:00 9.9 0 Calma 12 Norte 0 -- -- 44
2019-03-28 20:00:00 13.2 7 Norte 14 Norte 0 -- -- 39
2019-03-28 19:00:00 17.2 4 Nordeste 15 Nordeste 0 -- -- 28
2019-03-28 18:00:00 18 4 Este 17 Este 0 -- -- 23
2019-03-28 17:00:00 18.2 4 Noroeste 20 Este 0 -- -- 25
2019-03-28 16:00:00 17.4 9 Nordeste 20 Nordeste 0 -- -- 27
2019-03-28 15:00:00 16.8 7 Nordeste 21 Nordeste 0 -- -- 28
2019-03-28 14:00:00 15.5 10 Nordeste 23 Nordeste 0 -- -- 34
2019-03-28 13:00:00 14 10 Nordeste 20 Nordeste 0 -- -- 37
2019-03-28 12:00:00 12 11 Nordeste 19 Nordeste 0 -- -- 40
2019-03-28 11:00:00 9.4 10 Nordeste 19 Nordeste 0 -- -- 46
2019-03-28 10:00:00 6.8 12 Este 19 Este 0 -- -- 49
2019-03-28 09:00:00 3.4 9 Nordeste 12 Este 0 -- -- 55
2019-03-28 08:00:00 -3.1 3 Sur 6 Sur 0 -- -- 74
2019-03-28 07:00:00 -3.6 2 Sur 5 Sur 0 -- -- 74
2019-03-28 06:00:00 -2.4 4 Sudoeste 9 Sur 0 -- -- 68
2019-03-28 05:00:00 -0.1 3 Sur 10 Nordeste 0 -- -- 60
2019-03-28 04:00:00 2.5 3 Norte 15 Nordeste 0 -- -- 49
2019-03-28 03:00:00 3.5 6 Nordeste 12 Nordeste 0 -- -- 46
2019-03-28 02:00:00 4.9 5 Nordeste 14 Este 0 -- -- 42
2019-03-28 01:00:00 7 7 Nordeste 27 Nordeste 0 -- -- 36
2019-03-28 00:00:00 8 19 Nordeste 28 Nordeste 0 -- -- 36
2019-03-27 23:00:00 8.7 9 Nordeste 34 Nordeste 0 -- -- 36
2019-03-27 22:00:00 11.2 17 Nordeste 35 Nordeste 0 -- -- 29
2019-03-27 21:00:00 11 10 Nordeste 19 Nordeste 0 -- -- 31
2019-03-27 20:00:00 13 8 Nordeste 18 Nordeste 0 -- -- 31
2019-03-27 19:00:00 16.6 13 Nordeste 27 Este 0 -- -- 24
2019-03-27 18:00:00 17.6 13 Nordeste 29 Norte 0 -- -- 24
2019-03-27 17:00:00 17.8 14 Nordeste 32 Norte 0 -- -- 22
2019-03-27 16:00:00 17 12 Nordeste 30 Norte 0 -- -- 25
2019-03-27 15:00:00 16.8 12 Nordeste 24 Norte 0 -- -- 29
2019-03-27 14:00:00 15.8 13 Nordeste 24 Nordeste 0 -- -- 30
2019-03-27 13:00:00 14.6 12 Nordeste 23 Nordeste 0 -- -- 34
2019-03-27 12:00:00 12.3 12 Nordeste 21 Este 0 -- -- 40
2019-03-27 11:00:00 9.7 11 Nordeste 21 Nordeste 0 -- -- 47
2019-03-27 10:00:00 6.5 10 Este 18 Nordeste 0 -- -- 56
2019-03-27 09:00:00 3.3 10 Este 17 Este 0 -- -- 63
2019-03-27 08:00:00 -2.5 2 Sur 8 Sur 0 -- -- 76
2019-03-27 07:00:00 -2.9 4 Sudeste 6 Nordeste 0 -- -- 73
2019-03-27 06:00:00 -1.4 4 Nordeste 9 Nordeste 0 -- -- 69
2019-03-27 05:00:00 -0.7 0 Calma 9 Nordeste 0 -- -- 62
2019-03-27 04:00:00 0.4 3 Este 10 Norte 0 -- -- 57
2019-03-27 03:00:00 2.3 4 Norte 10 Nordeste 0 -- -- 47
2019-03-27 02:00:00 4.1 9 Este 29 Este 0 -- -- 42
2019-03-27 01:00:00 4.7 18 Este 31 Este 0 -- -- 39
2019-03-27 00:00:00 6.3 21 Este 30 Este 0 -- -- 35